Terminal Aerodrome Forecast
Issued by NWS Billings, MT

Home | Current Version | Previous Version | Text Only | Print | Product List | Glossary Off
Versions: 1 2 3 4 5 6 7 8 9 10 11 12 13 14 15 16

000
FTUS45 KBYZ 201121
TAFMLS
TAF
KMLS 201121Z 2012/2112 04006KT P6SM FEW090 BKN250
     FM201400 15010KT P6SM SCT250
     FM202200 27010KT P6SM SCT100 BKN250
     FM210200 33010KT P6SM VCTS FEW070CB SCT150=

USA.gov is the U.S. government's official web portal to all federal, state and local government web resources and services.